JBU1321 KBOS-KPBI
Flight info
| Callsign | JBU1321 |
|---|---|
| Flight time | N/A |
| Altitude | 36000 |
| Route | SSOXS7 SSOXS Q167 RIFLE HEADI Q97 KALDA Q131 WAALT Y289 DULEE CLMNT2 |
| Aircraft | A320/M-SDE3FGHIRWY/LB1 |
Departure
| Time | 2026-05-06 13:24 |
|---|---|
| Airport | Boston Logan International Airport (KBOS) |
Arrival
| Time | N/A |
|---|---|
| Airport | Palm Beach International Airport (KPBI) |
| Time | Latitude | Longitude | Altitude | Speed | Heading |
|---|---|---|---|---|---|
| 2026-05-06 12:57 | 42.36610 | -71.01368 | 26 ft | 0 kts | 289° |
| 2026-05-06 13:13 | 42.36606 | -71.01353 | 25 ft | 3 kts | 289° |
| 2026-05-06 13:13 | 42.36600 | -71.01330 | 25 ft | 3 kts | 294° |
| 2026-05-06 13:14 | 42.36590 | -71.01310 | 30 ft | 3 kts | 329° |
| 2026-05-06 13:14 | 42.36574 | -71.01302 | 25 ft | 3 kts | 4° |
| 2026-05-06 13:14 | 42.36557 | -71.01308 | 28 ft | 2 kts | 31° |
| 2026-05-06 13:14 | 42.36547 | -71.01315 | 29 ft | 0 kts | 27° |
| 2026-05-06 13:19 | 42.36550 | -71.01313 | 29 ft | 2 kts | 26° |
| 2026-05-06 13:19 | 42.36593 | -71.01290 | 31 ft | 11 kts | 20° |
| 2026-05-06 13:19 | 42.36674 | -71.01259 | 25 ft | 13 kts | 14° |
| 2026-05-06 13:19 | 42.36765 | -71.01250 | 29 ft | 14 kts | 339° |
| 2026-05-06 13:20 | 42.36836 | -71.01280 | 27 ft | 11 kts | 33° |
| 2026-05-06 13:20 | 42.36899 | -71.01208 | 28 ft | 13 kts | 40° |
| 2026-05-06 13:20 | 42.36970 | -71.01127 | 25 ft | 14 kts | 38° |
| 2026-05-06 13:20 | 42.37059 | -71.01064 | 27 ft | 15 kts | 26° |
| 2026-05-06 13:21 | 42.37157 | -71.01000 | 28 ft | 16 kts | 26° |
| 2026-05-06 13:21 | 42.37263 | -71.00931 | 25 ft | 17 kts | 26° |
| 2026-05-06 13:21 | 42.37379 | -71.00869 | 27 ft | 19 kts | 19° |
| 2026-05-06 13:21 | 42.37504 | -71.00809 | 28 ft | 20 kts | 20° |
| 2026-05-06 13:22 | 42.37637 | -71.00745 | 27 ft | 21 kts | 20° |
| 2026-05-06 13:22 | 42.37776 | -71.00678 | 29 ft | 20 kts | 19° |
| 2026-05-06 13:22 | 42.37837 | -71.00589 | 25 ft | 12 kts | 101° |
| 2026-05-06 13:22 | 42.37808 | -71.00487 | 27 ft | 6 kts | 118° |
| 2026-05-06 13:23 | 42.37771 | -71.00484 | 25 ft | 0 kts | 200° |
| 2026-05-06 13:23 | 42.37769 | -71.00485 | 25 ft | 3 kts | 200° |
| 2026-05-06 13:23 | 42.37579 | -71.00577 | 28 ft | 63 kts | 199° |
| 2026-05-06 13:23 | 42.36972 | -71.00870 | 27 ft | 120 kts | 199° |
| 2026-05-06 13:24 | 42.36069 | -71.01309 | 239 ft | 145 kts | 199° |
| 2026-05-06 13:24 | 42.35129 | -71.01786 | 862 ft | 144 kts | 197° |
| 2026-05-06 13:24 | 42.34131 | -71.01687 | 1521 ft | 155 kts | 161° |
| 2026-05-06 13:24 | 42.33307 | -71.00583 | 2020 ft | 179 kts | 141° |
| 2026-05-06 13:25 | 42.32482 | -70.99188 | 2175 ft | 202 kts | 141° |
| 2026-05-06 13:25 | 42.31585 | -70.97592 | 2469 ft | 225 kts | 131° |
| 2026-05-06 13:25 | 42.31178 | -70.95418 | 2964 ft | 258 kts | 95° |
| 2026-05-06 13:25 | 42.31447 | -70.92877 | 3279 ft | 287 kts | 85° |
| 2026-05-06 13:26 | 42.31839 | -70.90162 | 3821 ft | 299 kts | 83° |
| 2026-05-06 13:26 | 42.32266 | -70.87389 | 4624 ft | 303 kts | 83° |
| 2026-05-06 13:26 | 42.32687 | -70.84634 | 5472 ft | 304 kts | 84° |
| 2026-05-06 13:26 | 42.32948 | -70.81780 | 6298 ft | 300 kts | 97° |
| 2026-05-06 13:27 | 42.32745 | -70.79003 | 7036 ft | 295 kts | 111° |
| 2026-05-06 13:27 | 42.32116 | -70.76431 | 7746 ft | 290 kts | 124° |
| 2026-05-06 13:27 | 42.31254 | -70.73953 | 8481 ft | 293 kts | 124° |
| 2026-05-06 13:27 | 42.30350 | -70.71471 | 9202 ft | 293 kts | 131° |
| 2026-05-06 13:28 | 42.29120 | -70.69335 | 9902 ft | 284 kts | 146° |
| 2026-05-06 13:28 | 42.27568 | -70.67721 | 10362 ft | 285 kts | 160° |
| 2026-05-06 13:28 | 42.25711 | -70.66676 | 10507 ft | 298 kts | 170° |
| 2026-05-06 13:28 | 42.23667 | -70.65789 | 10651 ft | 318 kts | 169° |
| 2026-05-06 13:29 | 42.21526 | -70.64838 | 11096 ft | 328 kts | 169° |
| 2026-05-06 13:29 | 42.19350 | -70.63846 | 11677 ft | 333 kts | 168° |
| 2026-05-06 13:29 | 42.17145 | -70.62837 | 12266 ft | 336 kts | 170° |
| 2026-05-06 13:29 | 42.14871 | -70.62217 | 12842 ft | 332 kts | 181° |
| 2026-05-06 13:30 | 42.12572 | -70.62237 | 13427 ft | 330 kts | 192° |
| 2026-05-06 13:30 | 42.10340 | -70.62886 | 13972 ft | 329 kts | 201° |
| 2026-05-06 13:30 | 42.08159 | -70.63861 | 14473 ft | 332 kts | 202° |
| 2026-05-06 13:30 | 42.05948 | -70.64845 | 14962 ft | 337 kts | 202° |
| 2026-05-06 13:31 | 42.03710 | -70.65836 | 15436 ft | 341 kts | 202° |
| 2026-05-06 13:31 | 42.01443 | -70.66835 | 15926 ft | 345 kts | 202° |
| 2026-05-06 13:31 | 41.99154 | -70.67844 | 16418 ft | 349 kts | 202° |
| 2026-05-06 13:31 | 41.96821 | -70.68869 | 16909 ft | 354 kts | 201° |
| 2026-05-06 13:32 | 41.94467 | -70.69901 | 17400 ft | 358 kts | 201° |
| 2026-05-06 13:32 | 41.92083 | -70.70944 | 17910 ft | 363 kts | 201° |
| 2026-05-06 13:32 | 41.89667 | -70.72001 | 18387 ft | 368 kts | 201° |
| 2026-05-06 13:32 | 41.87219 | -70.73067 | 18847 ft | 371 kts | 201° |
| 2026-05-06 13:33 | 41.84750 | -70.74146 | 19330 ft | 375 kts | 203° |
| 2026-05-06 13:33 | 41.82379 | -70.75573 | 19809 ft | 374 kts | 212° |
| 2026-05-06 13:33 | 41.80101 | -70.77294 | 20306 ft | 377 kts | 212° |
| 2026-05-06 13:33 | 41.77803 | -70.79032 | 20770 ft | 381 kts | 212° |
| 2026-05-06 13:34 | 41.75487 | -70.80781 | 21239 ft | 384 kts | 213° |
| 2026-05-06 13:34 | 41.73149 | -70.82544 | 21668 ft | 387 kts | 213° |
| 2026-05-06 13:34 | 41.70792 | -70.84315 | 22086 ft | 390 kts | 213° |
| 2026-05-06 13:34 | 41.68415 | -70.86097 | 22493 ft | 393 kts | 213° |
| 2026-05-06 13:35 | 41.66018 | -70.87891 | 22899 ft | 396 kts | 213° |
| 2026-05-06 13:35 | 41.63600 | -70.89697 | 23288 ft | 399 kts | 213° |
| 2026-05-06 13:35 | 41.61165 | -70.91516 | 23657 ft | 402 kts | 213° |
| 2026-05-06 13:35 | 41.58715 | -70.93345 | 23982 ft | 405 kts | 213° |
| 2026-05-06 13:36 | 41.56311 | -70.95302 | 24314 ft | 404 kts | 220° |
| 2026-05-06 13:36 | 41.54202 | -70.97754 | 24632 ft | 402 kts | 229° |
| 2026-05-06 13:36 | 41.52462 | -71.00661 | 24961 ft | 401 kts | 238° |
| 2026-05-06 13:36 | 41.50919 | -71.03767 | 25287 ft | 402 kts | 238° |
| 2026-05-06 13:37 | 41.49369 | -71.06885 | 25620 ft | 404 kts | 238° |
| 2026-05-06 13:37 | 41.47809 | -71.10010 | 25951 ft | 405 kts | 238° |
| 2026-05-06 13:37 | 41.46239 | -71.13144 | 26271 ft | 407 kts | 238° |
| 2026-05-06 13:37 | 41.44663 | -71.16283 | 26607 ft | 408 kts | 238° |
| 2026-05-06 13:38 | 41.43078 | -71.19432 | 26942 ft | 410 kts | 238° |
| 2026-05-06 13:38 | 41.41488 | -71.22590 | 27253 ft | 411 kts | 238° |
| 2026-05-06 13:38 | 41.39892 | -71.25759 | 27563 ft | 413 kts | 238° |
| 2026-05-06 13:38 | 41.38290 | -71.28931 | 27954 ft | 412 kts | 238° |
| 2026-05-06 13:39 | 41.36692 | -71.32091 | 28423 ft | 410 kts | 239° |
| 2026-05-06 13:39 | 41.35104 | -71.35235 | 28899 ft | 408 kts | 239° |
| 2026-05-06 13:39 | 41.33523 | -71.38364 | 29355 ft | 407 kts | 239° |
| 2026-05-06 13:39 | 41.31947 | -71.41483 | 29809 ft | 406 kts | 239° |
| 2026-05-06 13:40 | 41.30373 | -71.44591 | 30227 ft | 404 kts | 239° |
| 2026-05-06 13:40 | 41.28805 | -71.47689 | 30602 ft | 403 kts | 239° |
| 2026-05-06 13:40 | 41.27228 | -71.50767 | 31011 ft | 402 kts | 238° |
| 2026-05-06 13:40 | 41.25593 | -71.53766 | 31442 ft | 400 kts | 237° |
| 2026-05-06 13:41 | 41.23917 | -71.56706 | 31859 ft | 399 kts | 237° |
| 2026-05-06 13:41 | 41.22221 | -71.59610 | 32277 ft | 397 kts | 237° |
| 2026-05-06 13:41 | 41.20549 | -71.62457 | 32687 ft | 395 kts | 237° |
| 2026-05-06 13:41 | 41.18871 | -71.65332 | 33108 ft | 393 kts | 237° |
| 2026-05-06 13:42 | 41.17212 | -71.68206 | 33516 ft | 391 kts | 238° |
| 2026-05-06 13:42 | 41.15569 | -71.71071 | 33936 ft | 389 kts | 238° |
| 2026-05-06 13:42 | 41.13934 | -71.73924 | 34273 ft | 388 kts | 238° |
| 2026-05-06 13:42 | 41.12307 | -71.76765 | 34585 ft | 386 kts | 239° |
| 2026-05-06 13:43 | 41.10685 | -71.79597 | 34884 ft | 385 kts | 239° |
| 2026-05-06 13:43 | 41.09065 | -71.82420 | 35178 ft | 384 kts | 239° |
| 2026-05-06 13:43 | 41.07448 | -71.85232 | 35451 ft | 383 kts | 239° |
| 2026-05-06 13:43 | 41.05833 | -71.88033 | 35724 ft | 382 kts | 239° |
| 2026-05-06 13:44 | 41.04219 | -71.90829 | 35933 ft | 382 kts | 239° |
| 2026-05-06 13:44 | 41.00970 | -71.96479 | 35990 ft | 391 kts | 239° |
| 2026-05-06 13:45 | 40.97652 | -72.02240 | 35986 ft | 395 kts | 239° |
| 2026-05-06 13:45 | 40.92634 | -72.10890 | 35969 ft | 395 kts | 239° |
| 2026-05-06 13:46 | 40.89284 | -72.16644 | 35970 ft | 395 kts | 239° |
| 2026-05-06 13:46 | 40.85914 | -72.22431 | 35973 ft | 395 kts | 239° |
| 2026-05-06 13:47 | 40.82562 | -72.28177 | 35975 ft | 395 kts | 240° |
| 2026-05-06 13:47 | 40.79231 | -72.33884 | 35983 ft | 395 kts | 240° |
| 2026-05-06 13:48 | 40.75876 | -72.39619 | 35998 ft | 395 kts | 240° |
| 2026-05-06 13:48 | 40.72516 | -72.45346 | 36005 ft | 394 kts | 240° |
| 2026-05-06 13:49 | 40.69157 | -72.51057 | 36005 ft | 394 kts | 240° |
| 2026-05-06 13:49 | 40.65799 | -72.56762 | 36011 ft | 394 kts | 240° |
| 2026-05-06 13:50 | 40.62449 | -72.62457 | 36010 ft | 393 kts | 240° |
| 2026-05-06 13:50 | 40.59093 | -72.68136 | 36009 ft | 392 kts | 240° |
| 2026-05-06 13:51 | 40.55741 | -72.73790 | 35997 ft | 392 kts | 240° |
| 2026-05-06 13:51 | 40.52398 | -72.79443 | 35997 ft | 391 kts | 240° |
| 2026-05-06 13:52 | 40.49051 | -72.85081 | 35995 ft | 391 kts | 240° |
| 2026-05-06 13:52 | 40.45701 | -72.90704 | 35995 ft | 391 kts | 240° |
| 2026-05-06 13:53 | 40.42358 | -72.96319 | 35994 ft | 390 kts | 240° |
| 2026-05-06 13:53 | 40.39579 | -73.00976 | 35990 ft | 390 kts | 240° |
| 2026-05-06 13:54 | 40.36237 | -73.06567 | 35988 ft | 389 kts | 240° |
| 2026-05-06 13:54 | 40.32897 | -73.12149 | 35986 ft | 389 kts | 240° |
| 2026-05-06 13:55 | 40.29556 | -73.17708 | 35987 ft | 388 kts | 240° |
| 2026-05-06 13:55 | 40.26219 | -73.23260 | 35988 ft | 388 kts | 240° |
| 2026-05-06 13:56 | 40.22886 | -73.28797 | 35983 ft | 387 kts | 240° |
| 2026-05-06 13:56 | 40.19551 | -73.34326 | 35980 ft | 387 kts | 241° |
| 2026-05-06 13:57 | 40.16213 | -73.39846 | 35974 ft | 387 kts | 240° |
| 2026-05-06 13:57 | 40.12875 | -73.45352 | 35970 ft | 386 kts | 240° |
| 2026-05-06 13:58 | 40.09533 | -73.50856 | 35965 ft | 387 kts | 240° |
| 2026-05-06 13:58 | 40.06211 | -73.56320 | 35963 ft | 387 kts | 241° |
| 2026-05-06 13:59 | 40.02869 | -73.61816 | 35966 ft | 387 kts | 241° |
| 2026-05-06 13:59 | 39.99518 | -73.67315 | 35965 ft | 387 kts | 241° |
| 2026-05-06 14:00 | 39.95643 | -73.72353 | 35967 ft | 408 kts | 225° |
| 2026-05-06 14:00 | 39.93139 | -73.74211 | 35970 ft | 423 kts | 215° |
| 2026-05-06 14:00 | 39.90393 | -73.75678 | 35968 ft | 427 kts | 214° |
| 2026-05-06 14:01 | 39.84887 | -73.78596 | 35964 ft | 427 kts | 214° |
| 2026-05-06 14:01 | 39.79379 | -73.81532 | 35963 ft | 428 kts | 214° |
| 2026-05-06 14:02 | 39.73860 | -73.84476 | 35964 ft | 429 kts | 214° |
| 2026-05-06 14:02 | 39.68324 | -73.87414 | 35962 ft | 430 kts | 214° |
| 2026-05-06 14:03 | 39.62774 | -73.90347 | 35963 ft | 431 kts | 214° |
| 2026-05-06 14:03 | 39.57211 | -73.93281 | 35963 ft | 432 kts | 214° |
| 2026-05-06 14:04 | 39.51646 | -73.96220 | 35975 ft | 433 kts | 214° |
| 2026-05-06 14:04 | 39.46066 | -73.99163 | 35980 ft | 433 kts | 214° |
| 2026-05-06 14:05 | 39.40730 | -74.02514 | 35983 ft | 416 kts | 226° |
| 2026-05-06 14:05 | 39.38460 | -74.04734 | 35982 ft | 405 kts | 232° |
| 2026-05-06 14:05 | 39.36317 | -74.07098 | 35986 ft | 405 kts | 232° |
| 2026-05-06 14:06 | 39.32010 | -74.11806 | 35993 ft | 406 kts | 232° |
| 2026-05-06 14:06 | 39.27697 | -74.16502 | 35992 ft | 406 kts | 232° |
| 2026-05-06 14:07 | 39.23380 | -74.21194 | 35994 ft | 406 kts | 232° |
| 2026-05-06 14:07 | 39.19061 | -74.25881 | 35998 ft | 406 kts | 232° |
| 2026-05-06 14:08 | 39.14749 | -74.30564 | 35994 ft | 405 kts | 232° |
| 2026-05-06 14:08 | 39.10439 | -74.35234 | 36003 ft | 405 kts | 232° |
| 2026-05-06 14:09 | 39.06127 | -74.39896 | 36000 ft | 405 kts | 232° |
| 2026-05-06 14:09 | 39.01808 | -74.44548 | 36014 ft | 405 kts | 232° |
| 2026-05-06 14:10 | 38.97492 | -74.49186 | 36019 ft | 404 kts | 232° |
| 2026-05-06 14:10 | 38.93191 | -74.53829 | 36009 ft | 402 kts | 232° |
| 2026-05-06 14:11 | 38.89054 | -74.58612 | 36013 ft | 399 kts | 234° |
| 2026-05-06 14:11 | 38.85010 | -74.63464 | 35998 ft | 398 kts | 234° |
| 2026-05-06 14:12 | 38.80943 | -74.68277 | 36005 ft | 398 kts | 234° |
| 2026-05-06 14:12 | 38.76841 | -74.73050 | 36001 ft | 398 kts | 234° |
| 2026-05-06 14:13 | 38.72678 | -74.77763 | 35993 ft | 401 kts | 232° |